Aérodrome :
LOGIN :

S'inscrire | Disclaimer

   EN    FR    IT 

 










Légende :    VFR   VFR Marginal   IFR   IFR Intensif   IFR Très Intensif
Visi : 
Plafond : 
>= 8 km
>= 3000ft
5 à 8 km
1000 à 3000 ft
1500m à 5 km
500 à 1000 ft
800 à 1500m
200 à 500 ft
< 800m
< 200 ft
Symboles :   Orages  Brouillard  Fortes neiges  Fortes précipitations  Vent > 20 kt
SIGMETs :   Divers  Orages  Givrage  Turbulence  Onde Orograph.  Cendres Volcan.







- Altitude de l'aérodrome : 681 ft
- Code IATA : LBA
- Voir les cartes d'approche


EGNM - Leeds Bradford

DERNIER METAR :
  • 192320Z 21010KT 180V240 9999 BKN014 07/04 Q1012

METARs EXPIRÉS :
  • 192250Z 21012KT 180V240 9999 -DZ BKN016 07/04 Q1012
  • 192220Z 20013KT 9999 -DZ FEW018 SCT030 07/04 Q1013
  • 192150Z 20010KT 170V230 9999 -DZ FEW018 SCT030 07/04 Q1013
  • 192120Z 21010KT 9999 SCT018 SCT022 07/04 Q1013
  • 192050Z 20009KT 160V230 9999 SCT020 07/04 Q1013

TAF TAF EGNM
Valide du 20 à 00h jusqu'au 21 à 00h UTC


192307Z 2000/2024 23012KT 9999 SCT022
TEMPO 2000/2024 24015G25KT 7000 -RA BKN010
PROB30
TEMPO 2000/2009 4000 RA BKN008
PROB30
TEMPO 2015/2024 BKN006
ATIS : +44 113 250 9696 (x2489)
Pas de NOTAMs connus pour ce terrain.



MET'MAP, la Météo Aéronautique d'un coup d'oeil ! - Copyright ORBIFLY Décembre 2007 - Disclaimer

ORBIFLY MET'MAP TEAM :

Programmation & Développement : Alexandra Zaïnal
Conception & Développement : Baudouin d'Aumeries
Co-Programmation & Développement : Marc-Olivier Méhu
Soutien technique & logistique : Manuel Goepfert

Contact : metmap@orbifly.com




SOURCES & CREDITS :

   NOAA